Time;durP1;ratioP1;P1;durP2;ratioP2;P2;SDS_P1;SDS_P2;PMS_P1;PMS_P2;Temp;Humidity;BMP_temperature;BMP_pressure;BME280_temperature;BME280_humidity;BME280_pressure;Samples;Min_cycle;Max_cycle;Signal;HPM_P1;HPM_P2
2023/01/07 00:00:50;;;;;;;4.15;2.65;;;;;;;21.57;41.57;101441.41;5029919;28;20116;-70
2023/01/07 00:03:16;;;;;;;3.38;2.40;;;;;;;21.65;41.65;101451.94;5038826;28;20067;-69
2023/01/07 00:05:42;;;;;;;6.15;2.95;;;;;;;21.61;41.58;101449.81;5041116;28;20044;-69
2023/01/07 00:08:08;;;;;;;5.20;3.22;;;;;;;21.56;41.90;101453.00;5027099;28;20436;-69
2023/01/07 00:10:34;;;;;;;3.17;2.50;;;;;;;21.59;41.89;101444.69;5022381;28;20044;-68
2023/01/07 00:13:00;;;;;;;3.88;2.97;;;;;;;21.55;41.58;101439.94;5035761;28;20287;-68
2023/01/07 00:15:26;;;;;;;6.05;3.00;;;;;;;21.49;42.03;101443.28;5039265;28;20515;-69
2023/01/07 00:17:51;;;;;;;5.05;2.90;;;;;;;21.55;41.59;101450.53;5033606;28;21623;-69
2023/01/07 00:20:17;;;;;;;3.47;2.70;;;;;;;21.54;41.88;101444.38;5036248;28;20045;-69
2023/01/07 00:22:42;;;;;;;3.55;2.67;;;;;;;21.50;41.67;101440.44;5031344;28;20041;-69
2023/01/07 00:25:08;;;;;;;4.05;2.83;;;;;;;21.51;41.77;101449.22;5024997;28;20115;-69
2023/01/07 00:27:33;;;;;;;3.67;2.60;;;;;;;21.46;41.48;101441.81;5021272;28;20122;-76
2023/01/07 00:29:59;;;;;;;2.95;2.58;;;;;;;21.52;41.88;101451.69;5021039;28;20033;-77
2023/01/07 00:32:48;;;;;;;5.15;2.70;;;;;;;21.56;41.65;101444.22;5037012;28;20056;-77
2023/01/07 00:35:21;;;;;;;3.85;2.72;;;;;;;21.51;41.70;101451.88;5038376;28;20036;-77
2023/01/07 00:37:52;;;;;;;3.70;2.40;;;;;;;21.47;41.86;101450.56;5045180;28;20373;-77
2023/01/07 00:40:19;;;;;;;3.58;2.67;;;;;;;21.47;41.92;101445.28;5035285;28;20064;-76
2023/01/07 00:42:55;;;;;;;5.03;2.88;;;;;;;21.44;41.94;101441.16;5015788;28;20487;-76
2023/01/07 00:45:22;;;;;;;3.03;2.25;;;;;;;21.39;41.72;101440.88;5042141;28;20036;-77
2023/01/07 00:47:48;;;;;;;3.03;2.72;;;;;;;21.39;41.96;101439.03;5033158;28;20541;-77
2023/01/07 00:50:13;;;;;;;3.05;2.70;;;;;;;21.42;41.72;101438.69;5037789;28;20025;-77
2023/01/07 00:52:39;;;;;;;2.47;2.17;;;;;;;21.40;41.91;101430.09;5036883;28;20045;-77
2023/01/07 00:55:05;;;;;;;4.05;2.40;;;;;;;21.42;41.92;101428.09;5040919;28;20209;-76
2023/01/07 00:57:33;;;;;;;2.92;2.67;;;;;;;21.46;41.72;101428.56;5030301;28;20060;-66
2023/01/07 00:59:59;;;;;;;3.67;2.40;;;;;;;21.32;41.88;101422.19;5014809;28;20113;-66
2023/01/07 01:02:25;;;;;;;3.90;2.45;;;;;;;21.38;41.79;101428.63;5022713;28;20048;-66
2023/01/07 01:04:51;;;;;;;3.85;2.30;;;;;;;21.25;42.14;101408.00;5031267;28;20041;-66
2023/01/07 01:07:16;;;;;;;3.88;2.42;;;;;;;21.19;41.97;101397.25;5037492;28;20044;-66
2023/01/07 01:09:42;;;;;;;2.95;2.35;;;;;;;21.18;41.92;101392.94;5032717;28;20033;-66
2023/01/07 01:12:07;;;;;;;4.55;2.58;;;;;;;21.24;41.81;101406.34;5029908;28;20041;-66
2023/01/07 01:14:33;;;;;;;3.20;2.30;;;;;;;21.36;42.00;101434.09;5000156;28;20488;-69
2023/01/07 01:16:59;;;;;;;3.20;2.38;;;;;;;21.37;41.61;101425.16;5033042;28;20045;-69
2023/01/07 01:19:24;;;;;;;2.67;2.20;;;;;;;21.36;41.68;101422.63;5042058;28;20060;-68
2023/01/07 01:21:50;;;;;;;5.20;2.50;;;;;;;21.29;42.33;101427.81;5034769;28;20032;-69
2023/01/07 01:24:15;;;;;;;2.80;2.40;;;;;;;21.33;42.09;101423.81;5045574;28;20037;-69
2023/01/07 01:26:41;;;;;;;3.03;2.28;;;;;;;21.28;42.00;101426.19;5031818;28;20524;-69
2023/01/07 01:29:06;;;;;;;2.40;2.20;;;;;;;21.32;41.73;101416.06;5052240;28;20041;-69
2023/01/07 01:31:32;;;;;;;3.97;2.40;;;;;;;21.31;42.10;101415.22;5002544;28;20037;-69
2023/01/07 01:33:58;;;;;;;3.65;2.72;;;;;;;21.33;41.71;101415.88;5032824;28;20075;-69
2023/01/07 01:36:24;;;;;;;3.00;2.35;;;;;;;21.35;41.99;101419.16;5041411;28;20059;-69
2023/01/07 01:38:52;;;;;;;3.53;2.25;;;;;;;21.34;41.66;101414.06;5038275;28;20052;-69
2023/01/07 01:41:19;;;;;;;4.70;2.45;;;;;;;21.26;41.96;101417.59;5040112;28;20139;-69
2023/01/07 01:43:48;;;;;;;3.15;2.42;;;;;;;21.27;41.88;101413.94;5024060;28;20040;-69
2023/01/07 01:46:42;;;;;;;3.13;2.50;;;;;;;21.18;41.96;101401.69;5013331;28;20132;-69
2023/01/07 01:49:20;;;;;;;3.50;2.30;;;;;;;21.32;41.83;101413.41;5029504;28;20029;-68
2023/01/07 01:51:53;;;;;;;2.65;2.28;;;;;;;21.23;42.22;101409.13;5030725;28;20067;-69
2023/01/07 01:54:20;;;;;;;2.35;2.15;;;;;;;21.28;42.14;101420.06;5030569;28;20085;-69
2023/01/07 01:56:53;;;;;;;2.33;2.13;;;;;;;21.26;42.15;101414.94;5037632;28;20052;-69
2023/01/07 01:59:22;;;;;;;3.13;2.20;;;;;;;21.28;41.90;101402.34;5047782;28;20030;-68
2023/01/07 02:01:48;;;;;;;3.30;2.58;;;;;;;21.20;42.32;101398.91;5021520;28;20033;-71
2023/01/07 02:04:21;;;;;;;3.35;2.33;;;;;;;21.23;42.23;101407.31;5018827;28;20475;-66
2023/01/07 02:06:59;;;;;;;2.45;2.25;;;;;;;21.27;41.99;101403.34;5031480;28;20021;-66
2023/01/07 02:09:26;;;;;;;3.63;2.63;;;;;;;21.22;41.94;101395.06;5030817;28;20560;-66
2023/01/07 02:12:10;;;;;;;3.20;2.15;;;;;;;21.34;41.74;101404.28;5020655;28;20053;-66
2023/01/07 02:15:13;;;;;;;2.88;2.25;;;;;;;21.04;41.93;101370.69;5015667;28;20037;-66
2023/01/07 02:18:07;;;;;;;3.13;2.45;;;;;;;21.26;42.28;101406.16;5022743;28;20492;-66
2023/01/07 02:21:09;;;;;;;2.53;2.20;;;;;;;21.25;42.02;101401.88;5000417;28;20052;-69
2023/01/07 02:24:07;;;;;;;2.40;2.20;;;;;;;21.30;42.05;101402.97;5028323;28;20115;-69
2023/01/07 02:26:56;;;;;;;2.20;2.00;;;;;;;21.23;42.06;101404.66;5040016;28;20037;-69
2023/01/07 02:29:37;;;;;;;2.08;1.98;;;;;;;21.24;42.02;101401.06;5030752;28;20037;-70
2023/01/07 02:32:22;;;;;;;2.28;2.05;;;;;;;21.26;42.13;101404.34;5055126;28;20037;-69
2023/01/07 02:35:25;;;;;;;3.13;2.40;;;;;;;21.18;42.03;101399.03;5001659;28;20684;-71
2023/01/07 02:38:04;;;;;;;2.20;2.00;;;;;;;21.15;42.12;101386.16;5053139;28;20061;-66
2023/01/07 02:41:00;;;;;;;2.42;2.22;;;;;;;21.24;41.98;101392.25;5017532;28;20731;-66
2023/01/07 02:43:25;;;;;;;2.25;1.85;;;;;;;21.21;42.01;101390.78;5021523;28;20562;-66
2023/01/07 02:46:12;;;;;;;2.35;2.10;;;;;;;21.05;42.02;101364.38;5037125;28;20036;-66
2023/01/07 02:48:38;;;;;;;2.10;1.90;;;;;;;21.22;42.18;101388.94;5037405;28;20029;-66
2023/01/07 02:51:04;;;;;;;2.95;1.98;;;;;;;21.15;42.09;101382.69;5017432;28;20036;-76
2023/01/07 02:53:30;;;;;;;2.63;2.38;;;;;;;21.08;42.24;101367.50;5024008;28;20047;-71
2023/01/07 02:56:02;;;;;;;2.35;2.15;;;;;;;21.16;42.18;101369.28;5034679;28;20032;-71
2023/01/07 02:58:52;;;;;;;2.20;2.00;;;;;;;21.16;42.16;101368.44;5036625;28;20451;-71
2023/01/07 03:01:35;;;;;;;2.30;2.10;;;;;;;21.14;42.28;101365.97;5036336;28;20785;-71
2023/01/07 03:04:26;;;;;;;2.17;1.98;;;;;;;21.20;42.21;101375.88;5038178;28;20065;-71
2023/01/07 03:07:19;;;;;;;2.08;1.88;;;;;;;21.16;42.12;101374.56;5035711;28;20083;-70
2023/01/07 03:09:59;;;;;;;2.15;1.95;;;;;;;21.17;42.05;101367.44;5006937;28;21639;-77
2023/01/07 03:12:41;;;;;;;2.47;2.28;;;;;;;21.17;42.20;101362.97;5034708;28;20144;-77
2023/01/07 03:15:06;;;;;;;1.95;1.75;;;;;;;21.12;42.47;101370.63;5039653;28;20395;-76
2023/01/07 03:17:39;;;;;;;1.98;1.80;;;;;;;21.09;42.34;101363.84;5036829;28;20040;-76
2023/01/07 03:20:06;;;;;;;2.63;2.10;;;;;;;21.10;42.22;101362.84;5036287;28;20132;-76
2023/01/07 03:22:35;;;;;;;2.35;2.15;;;;;;;21.12;42.07;101344.97;5032136;28;20541;-77
2023/01/07 03:25:02;;;;;;;2.67;1.90;;;;;;;21.18;42.10;101361.97;5013791;28;20037;-76
2023/01/07 03:27:31;;;;;;;2.55;2.05;;;;;;;21.13;42.16;101362.50;5024581;28;20258;-66
2023/01/07 03:29:58;;;;;;;2.20;2.00;;;;;;;21.17;42.08;101355.03;5034634;28;20072;-66
2023/01/07 03:32:29;;;;;;;2.20;2.00;;;;;;;21.13;42.45;101354.56;5051751;28;20099;-66
2023/01/07 03:34:55;;;;;;;2.20;2.00;;;;;;;20.96;42.23;101325.72;5038440;28;20167;-66
2023/01/07 03:37:25;;;;;;;2.25;2.00;;;;;;;20.92;42.35;101316.47;5020884;28;20033;-66
2023/01/07 03:39:51;;;;;;;2.20;2.00;;;;;;;20.94;42.24;101312.66;5032708;28;20041;-66
2023/01/07 03:42:40;;;;;;;2.28;2.08;;;;;;;21.16;42.36;101344.59;5010518;28;20048;-70
2023/01/07 03:45:22;;;;;;;3.38;2.15;;;;;;;21.11;42.47;101338.03;5045274;28;20127;-70
2023/01/07 03:47:50;;;;;;;2.30;2.08;;;;;;;21.19;42.12;101337.16;5031285;28;20040;-71
2023/01/07 03:50:17;;;;;;;1.92;1.80;;;;;;;21.09;42.27;101339.19;5030128;28;20030;-71
2023/01/07 03:52:47;;;;;;;3.53;2.20;;;;;;;21.08;42.49;101338.38;5045732;28;20507;-71
2023/01/07 03:55:14;;;;;;;2.10;2.00;;;;;;;21.10;42.36;101339.03;5036320;28;20046;-71
2023/01/07 03:57:39;;;;;;;2.70;2.30;;;;;;;21.08;42.34;101343.69;5031244;28;20400;-69
2023/01/07 04:00:08;;;;;;;2.20;1.70;;;;;;;21.11;42.54;101340.66;5017707;28;20040;-68
2023/01/07 04:02:41;;;;;;;2.38;2.10;;;;;;;21.03;42.44;101334.63;5043243;28;20099;-68
2023/01/07 04:05:14;;;;;;;4.18;2.10;;;;;;;21.05;42.68;101344.03;5041069;28;20033;-69
2023/01/07 04:07:40;;;;;;;2.28;1.90;;;;;;;21.12;42.38;101346.78;5039949;28;20385;-69
2023/01/07 04:10:07;;;;;;;3.05;1.90;;;;;;;21.15;42.16;101342.97;5035166;28;20028;-69
2023/01/07 04:12:32;;;;;;;2.10;1.90;;;;;;;21.04;42.49;101338.91;5040106;28;20305;-68
2023/01/07 04:14:58;;;;;;;2.22;2.10;;;;;;;21.01;42.42;101329.50;5014703;28;20032;-66
2023/01/07 04:17:24;;;;;;;2.55;2.35;;;;;;;21.12;42.40;101329.06;5038455;28;20041;-66
2023/01/07 04:19:51;;;;;;;2.17;1.98;;;;;;;21.11;42.36;101327.44;5034636;28;20881;-66
2023/01/07 04:22:17;;;;;;;2.28;2.08;;;;;;;21.08;42.11;101319.03;5037670;28;20128;-67
2023/01/07 04:24:42;;;;;;;2.03;1.80;;;;;;;21.12;42.41;101334.38;5035580;28;20551;-66
2023/01/07 04:27:09;;;;;;;2.47;2.15;;;;;;;20.97;42.22;101306.16;5040567;28;20032;-66
2023/01/07 04:29:35;;;;;;;2.40;2.03;;;;;;;20.87;42.24;101285.25;5039622;28;20045;-66
2023/01/07 04:32:01;;;;;;;2.28;2.08;;;;;;;21.06;42.54;101315.72;5009440;28;20040;-76
2023/01/07 04:34:27;;;;;;;2.08;1.90;;;;;;;21.04;42.61;101309.78;5046398;28;20029;-77
2023/01/07 04:36:54;;;;;;;2.30;2.10;;;;;;;21.03;42.56;101316.09;5037547;28;20041;-76
2023/01/07 04:39:21;;;;;;;2.53;2.22;;;;;;;20.98;42.72;101291.94;5040067;28;20119;-77
2023/01/07 04:41:47;;;;;;;2.40;2.20;;;;;;;21.06;42.40;101303.31;5037700;28;20037;-77
2023/01/07 04:44:14;;;;;;;3.45;2.33;;;;;;;21.06;42.47;101302.50;5047284;28;20052;-76
2023/01/07 04:46:39;;;;;;;3.83;2.30;;;;;;;21.05;42.42;101306.13;5011621;28;20404;-76
2023/01/07 04:49:05;;;;;;;2.28;2.10;;;;;;;21.02;42.68;101298.56;5036740;28;20403;-76
2023/01/07 04:51:31;;;;;;;2.35;2.15;;;;;;;21.02;42.39;101294.06;5033851;28;20033;-76
2023/01/07 04:53:57;;;;;;;3.03;2.15;;;;;;;21.08;42.49;101298.66;5056027;28;20152;-76
2023/01/07 04:56:24;;;;;;;3.17;2.10;;;;;;;21.04;42.28;101285.97;5041159;28;20043;-76
2023/01/07 04:58:50;;;;;;;2.83;2.25;;;;;;;21.04;42.29;101289.44;5041556;28;20890;-76
2023/01/07 05:01:16;;;;;;;2.47;2.25;;;;;;;21.03;42.42;101303.66;5038679;28;20037;-76
2023/01/07 05:03:42;;;;;;;2.92;2.40;;;;;;;21.03;42.39;101293.06;5011975;28;20424;-69
2023/01/07 05:06:08;;;;;;;2.72;2.03;;;;;;;20.96;42.65;101297.41;5036354;28;20032;-68
2023/01/07 05:08:34;;;;;;;2.47;2.10;;;;;;;21.00;42.69;101293.41;5038165;28;20618;-68
2023/01/07 05:11:02;;;;;;;2.30;2.10;;;;;;;20.97;42.77;101291.09;5042551;28;20496;-68
2023/01/07 05:13:30;;;;;;;2.58;2.08;;;;;;;21.00;42.47;101284.63;5045865;28;20055;-68
2023/01/07 05:15:56;;;;;;;2.50;2.30;;;;;;;20.98;42.67;101281.34;5037092;28;20095;-68
2023/01/07 05:18:22;;;;;;;2.30;2.10;;;;;;;20.94;42.54;101275.59;5033105;28;20866;-69
2023/01/07 05:20:49;;;;;;;2.92;2.30;;;;;;;20.96;42.62;101278.88;4998849;28;20052;-66
2023/01/07 05:23:15;;;;;;;2.45;2.25;;;;;;;20.99;42.69;101275.03;5015057;28;20040;-66
2023/01/07 05:25:41;;;;;;;2.53;2.15;;;;;;;20.68;42.67;101222.19;5025303;28;20108;-66
2023/01/07 05:28:08;;;;;;;2.28;2.08;;;;;;;20.88;42.62;101267.53;5030095;28;20033;-66
2023/01/07 05:30:37;;;;;;;2.85;1.75;;;;;;;20.95;42.31;101255.22;5034004;28;20041;-66
2023/01/07 05:33:06;;;;;;;2.65;2.30;;;;;;;21.01;42.63;101281.84;5018226;28;20059;-66
2023/01/07 05:35:33;;;;;;;2.38;2.17;;;;;;;21.01;42.50;101283.66;4987769;28;20067;-76
2023/01/07 05:37:59;;;;;;;3.00;2.30;;;;;;;21.00;42.46;101280.16;5033048;28;20117;-76
2023/01/07 05:40:24;;;;;;;2.50;2.20;;;;;;;20.98;42.55;101286.63;5031645;28;20500;-76
2023/01/07 05:42:50;;;;;;;2.50;2.30;;;;;;;21.00;42.46;101284.63;5038433;28;20045;-76
2023/01/07 05:45:16;;;;;;;2.90;2.20;;;;;;;20.97;42.61;101277.88;5037295;28;20384;-77
2023/01/07 05:47:41;;;;;;;2.28;2.08;;;;;;;20.98;42.48;101284.81;5045757;28;20752;-76
2023/01/07 05:50:07;;;;;;;2.63;2.17;;;;;;;20.99;42.46;101275.03;5033714;28;20037;-76
2023/01/07 05:52:32;;;;;;;2.60;2.35;;;;;;;20.94;42.65;101285.34;5009293;28;20120;-71
2023/01/07 05:54:58;;;;;;;3.65;2.10;;;;;;;20.99;42.67;101275.03;5035376;28;20036;-71
2023/01/07 05:57:23;;;;;;;2.55;2.22;;;;;;;21.03;42.31;101271.91;5037591;28;20702;-71
2023/01/07 05:59:49;;;;;;;2.92;2.40;;;;;;;21.04;42.45;101281.47;5037870;28;20033;-71
2023/01/07 06:02:15;;;;;;;2.38;2.13;;;;;;;20.99;42.44;101277.69;5038574;28;20470;-71
2023/01/07 06:04:41;;;;;;;2.35;2.15;;;;;;;21.00;42.50;101282.81;5035970;28;20044;-71
2023/01/07 06:07:06;;;;;;;3.03;2.10;;;;;;;20.97;42.71;101275.22;5036920;28;20036;-71
2023/01/07 06:09:33;;;;;;;2.65;2.33;;;;;;;21.00;42.56;101263.44;5011715;28;20037;-66
2023/01/07 06:11:58;;;;;;;3.60;2.33;;;;;;;20.96;42.74;101270.94;5034182;28;20075;-66
2023/01/07 06:14:24;;;;;;;2.80;2.50;;;;;;;20.97;42.55;101272.56;5042820;28;20740;-66
2023/01/07 06:16:50;;;;;;;3.70;2.33;;;;;;;20.96;42.46;101263.00;5044840;28;20049;-66
2023/01/07 06:19:15;;;;;;;2.40;2.20;;;;;;;20.77;42.59;101227.22;5033908;28;20049;-66
2023/01/07 06:21:41;;;;;;;2.50;2.10;;;;;;;20.78;42.46;101230.69;5036618;28;20052;-66
2023/01/07 06:24:06;;;;;;;2.20;2.00;;;;;;;20.91;42.74;101262.69;5006773;28;20047;-69
2023/01/07 06:26:32;;;;;;;3.40;2.20;;;;;;;20.97;42.56;101259.34;5023948;28;20044;-76
2023/01/07 06:28:57;;;;;;;2.30;2.10;;;;;;;20.91;42.69;101254.75;5030011;28;20095;-76
2023/01/07 06:31:23;;;;;;;2.85;2.20;;;;;;;20.96;42.51;101251.56;5038164;28;20048;-76
2023/01/07 06:33:48;;;;;;;2.47;2.28;;;;;;;20.89;42.62;101256.75;5034252;28;20035;-76
2023/01/07 06:36:14;;;;;;;3.78;2.20;;;;;;;20.99;42.44;101259.16;5033243;28;20491;-76
2023/01/07 06:38:40;;;;;;;2.40;2.20;;;;;;;21.03;42.63;101253.34;5034847;28;20041;-76
2023/01/07 06:41:06;;;;;;;2.72;1.98;;;;;;;20.97;42.62;101254.03;5010518;28;20214;-69
2023/01/07 06:43:32;;;;;;;2.58;2.10;;;;;;;20.90;42.75;101247.81;5033245;28;20033;-69
2023/01/07 06:45:57;;;;;;;2.60;2.08;;;;;;;20.97;42.51;101250.56;5041608;28;20806;-68
2023/01/07 06:48:23;;;;;;;2.53;2.20;;;;;;;20.95;42.57;101242.81;5037660;28;20636;-68
2023/01/07 06:50:48;;;;;;;2.20;2.00;;;;;;;20.96;42.41;101241.00;5036878;28;20775;-69
2023/01/07 06:53:14;;;;;;;2.30;2.10;;;;;;;20.94;42.52;101237.69;5037126;28;20398;-69
2023/01/07 06:55:39;;;;;;;2.65;2.10;;;;;;;20.99;42.59;101230.84;5031231;28;20042;-68
2023/01/07 06:58:05;;;;;;;2.28;2.08;;;;;;;20.91;42.53;101225.63;5006929;28;20033;-70
2023/01/07 07:00:30;;;;;;;2.67;2.20;;;;;;;20.98;42.32;101231.88;5039469;28;20126;-71
2023/01/07 07:02:56;;;;;;;2.20;1.95;;;;;;;20.98;42.47;101223.09;5035870;28;20038;-70
2023/01/07 07:05:21;;;;;;;2.65;2.08;;;;;;;20.96;42.62;101228.56;5037776;28;20036;-70
2023/01/07 07:07:47;;;;;;;2.03;1.83;;;;;;;20.89;42.78;101227.66;5035859;28;20761;-70
2023/01/07 07:10:13;;;;;;;2.78;2.15;;;;;;;20.91;42.65;101225.63;5035496;28;20041;-70
2023/01/07 07:12:39;;;;;;;3.05;2.25;;;;;;;20.82;42.67;101218.75;5003744;28;21793;-76
2023/01/07 07:15:06;;;;;;;2.35;2.10;;;;;;;20.96;42.70;101230.41;5041135;28;20522;-76
2023/01/07 07:17:31;;;;;;;2.28;2.08;;;;;;;20.94;42.65;101227.09;5037515;28;20075;-76
2023/01/07 07:19:57;;;;;;;2.65;2.00;;;;;;;20.93;42.54;101228.09;5036988;28;20060;-76
2023/01/07 07:22:23;;;;;;;3.10;2.25;;;;;;;20.92;42.87;101226.47;5021204;28;20033;-76
2023/01/07 07:24:48;;;;;;;2.45;2.08;;;;;;;20.93;42.68;101226.28;5031701;28;20502;-76
2023/01/07 07:27:14;;;;;;;2.78;2.10;;;;;;;20.95;42.81;101229.56;5031087;28;20059;-76
2023/01/07 07:29:39;;;;;;;2.78;2.25;;;;;;;20.92;42.58;101226.47;5010873;28;20513;-69
2023/01/07 07:32:05;;;;;;;2.60;2.15;;;;;;;21.02;42.35;101222.59;5033767;28;20098;-68
2023/01/07 07:34:30;;;;;;;2.60;2.20;;;;;;;20.90;42.84;101221.34;5032810;28;20053;-68
2023/01/07 07:36:56;;;;;;;2.30;2.10;;;;;;;20.93;42.67;101223.63;5028635;28;20045;-68
2023/01/07 07:39:21;;;;;;;2.85;2.45;;;;;;;20.91;42.64;101216.88;5023603;28;20598;-69
2023/01/07 07:41:47;;;;;;;2.20;2.00;;;;;;;20.96;42.85;101223.28;5046483;28;20033;-69
2023/01/07 07:44:15;;;;;;;2.40;2.20;;;;;;;20.93;42.61;101225.47;5031497;28;21724;-68
2023/01/07 07:46:41;;;;;;;2.50;2.03;;;;;;;20.90;42.60;101218.69;5000044;28;20037;-70
2023/01/07 07:49:07;;;;;;;2.33;2.13;;;;;;;20.97;42.69;101222.28;5029731;28;20033;-70
2023/01/07 07:51:32;;;;;;;3.13;2.10;;;;;;;20.94;42.67;101214.69;5026377;28;20828;-70
2023/01/07 07:53:58;;;;;;;2.20;2.00;;;;;;;20.93;42.62;101213.03;5031358;28;20733;-70
2023/01/07 07:56:23;;;;;;;3.30;2.33;;;;;;;20.94;42.77;101206.75;5037566;28;20036;-70
2023/01/07 07:58:49;;;;;;;3.03;2.00;;;;;;;21.00;42.43;101197.25;5030976;28;20395;-69
2023/01/07 08:01:14;;;;;;;4.18;2.30;;;;;;;20.94;42.83;101201.47;5017089;28;20674;-69
2023/01/07 08:03:40;;;;;;;2.45;2.00;;;;;;;20.96;42.48;101196.81;5018108;28;20038;-76
2023/01/07 08:06:06;;;;;;;2.25;2.00;;;;;;;20.97;42.55;101201.09;5039709;28;20069;-76
2023/01/07 08:08:31;;;;;;;2.30;2.10;;;;;;;20.99;42.55;101192.97;5027058;28;20073;-76
2023/01/07 08:10:57;;;;;;;2.00;1.80;;;;;;;21.02;42.57;101195.28;5040512;28;20532;-76
2023/01/07 08:13:23;;;;;;;1.90;1.70;;;;;;;20.97;42.47;101181.75;5040253;28;20044;-76
2023/01/07 08:15:48;;;;;;;2.05;1.88;;;;;;;20.98;42.78;101189.50;5038253;28;20845;-76
2023/01/07 08:18:14;;;;;;;3.00;2.30;;;;;;;20.96;42.84;101175.63;4978558;28;20041;-68
2023/01/07 08:20:39;;;;;;;2.55;2.25;;;;;;;20.96;42.69;101170.31;5044005;28;20072;-68
2023/01/07 08:23:06;;;;;;;2.40;1.98;;;;;;;20.96;42.35;101174.81;5036861;28;20052;-69
2023/01/07 08:25:33;;;;;;;2.58;2.08;;;;;;;20.98;42.73;101178.91;5033275;28;20257;-69
2023/01/07 08:28:00;;;;;;;2.15;1.95;;;;;;;20.96;42.72;101180.91;5035311;28;20717;-69
2023/01/07 08:30:26;;;;;;;5.82;2.35;;;;;;;21.03;42.66;101163.34;5041480;28;20021;-68
2023/01/07 08:32:53;;;;;;;2.42;2.13;;;;;;;20.95;42.84;101166.03;5021734;28;20044;-65
2023/01/07 08:35:19;;;;;;;3.20;1.95;;;;;;;20.95;42.79;101159.91;5030744;28;20090;-68
2023/01/07 08:37:44;;;;;;;2.47;2.28;;;;;;;20.94;42.74;101159.09;5032817;28;20045;-68
2023/01/07 08:40:11;;;;;;;3.33;2.10;;;;;;;20.89;42.88;101156.19;5035943;28;20124;-69
2023/01/07 08:42:38;;;;;;;3.55;2.00;;;;;;;20.95;42.94;101160.75;5040538;28;20037;-68
2023/01/07 08:45:05;;;;;;;1.88;1.77;;;;;;;20.94;42.69;101161.75;5038866;28;20030;-68
2023/01/07 08:47:31;;;;;;;2.88;1.95;;;;;;;20.96;42.88;101154.44;5034972;28;20040;-69
2023/01/07 08:49:56;;;;;;;2.20;2.00;;;;;;;20.95;42.70;101150.16;5025853;28;20040;-69
2023/01/07 08:52:23;;;;;;;2.28;1.80;;;;;;;20.98;42.80;101151.63;5017095;28;20696;-68
2023/01/07 08:54:49;;;;;;;2.55;1.80;;;;;;;20.96;42.62;101149.16;5030672;28;20041;-68
2023/01/07 08:57:15;;;;;;;2.35;2.00;;;;;;;20.94;42.94;101160.94;5035883;28;20499;-68
2023/01/07 08:59:42;;;;;;;2.33;1.90;;;;;;;20.96;42.97;101170.31;5032566;28;20041;-68
2023/01/07 09:02:18;;;;;;;2.53;2.10;;;;;;;20.89;42.86;101166.75;5033743;28;20048;-69
2023/01/07 09:04:44;;;;;;;2.08;1.70;;;;;;;20.88;42.94;101159.81;5044702;28;20143;-68
2023/01/07 09:07:10;;;;;;;2.30;2.00;;;;;;;20.88;42.98;101151.88;5011782;28;20432;-75
2023/01/07 09:09:37;;;;;;;2.80;2.00;;;;;;;20.87;42.77;101144.13;5043271;28;20670;-75
2023/01/07 09:12:04;;;;;;;3.05;2.13;;;;;;;20.92;42.81;101155.00;5039874;28;20041;-74
2023/01/07 09:14:29;;;;;;;3.25;2.10;;;;;;;20.87;43.05;101150.25;5048039;28;20045;-75
2023/01/07 09:16:55;;;;;;;2.13;1.92;;;;;;;20.86;42.93;101145.94;5042495;28;20427;-75
2023/01/07 09:19:20;;;;;;;3.40;2.05;;;;;;;20.89;42.98;101150.06;5031247;28;20053;-75
2023/01/07 09:21:46;;;;;;;3.95;2.00;;;;;;;20.84;42.89;101141.84;5023101;28;20049;-69
2023/01/07 09:24:11;;;;;;;2.63;1.90;;;;;;;20.87;43.23;101138.81;5008249;28;20036;-76
2023/01/07 09:26:37;;;;;;;3.05;1.90;;;;;;;20.78;43.12;101136.22;5030284;28;20597;-76
2023/01/07 09:29:03;;;;;;;2.30;2.10;;;;;;;20.89;42.79;101135.00;5051863;28;20041;-75
2023/01/07 09:31:28;;;;;;;3.15;2.10;;;;;;;20.84;42.80;101126.78;5037652;28;20150;-75
2023/01/07 09:33:54;;;;;;;2.67;1.95;;;;;;;20.77;43.13;101121.34;5035219;28;20044;-75
2023/01/07 09:36:19;;;;;;;2.80;2.10;;;;;;;20.78;43.06;101130.13;5018741;28;20041;-75
2023/01/07 09:38:45;;;;;;;2.95;2.30;;;;;;;20.78;42.89;101130.13;5000610;28;20138;-70
2023/01/07 09:41:29;;;;;;;2.30;1.90;;;;;;;20.80;43.05;101126.28;5027880;28;20037;-70
2023/01/07 09:44:02;;;;;;;2.45;2.20;;;;;;;20.79;42.96;101126.47;5037819;28;20170;-70
2023/01/07 09:46:29;;;;;;;2.10;1.90;;;;;;;20.84;42.77;101126.78;5041678;28;20060;-70
2023/01/07 09:48:58;;;;;;;2.40;1.90;;;;;;;20.81;42.97;101137.69;5031617;28;20613;-71
2023/01/07 09:51:33;;;;;;;3.28;1.95;;;;;;;20.83;42.74;101126.97;5023204;28;20045;-70
2023/01/07 09:54:01;;;;;;;2.10;1.90;;;;;;;20.73;43.11;101130.66;4991556;28;20271;-71
2023/01/07 09:56:30;;;;;;;2.60;2.20;;;;;;;20.70;42.98;101122.25;5008949;28;20123;-70
2023/01/07 09:58:58;;;;;;;2.60;2.13;;;;;;;20.72;43.10;101123.72;5027010;28;20033;-71
2023/01/07 10:01:46;;;;;;;2.30;2.10;;;;;;;20.84;42.70;101107.44;5029747;28;20632;-71
2023/01/07 10:04:33;;;;;;;3.17;2.10;;;;;;;20.88;42.64;101119.28;5034075;28;20124;-70
2023/01/07 10:07:06;;;;;;;2.72;2.30;;;;;;;20.78;42.91;101112.41;5028889;28;20029;-71
2023/01/07 10:09:52;;;;;;;1.80;1.70;;;;;;;20.72;43.00;101123.72;5034498;28;20365;-70
2023/01/07 10:12:27;;;;;;;2.92;2.00;;;;;;;20.73;43.03;101113.97;5002015;28;20037;-70
2023/01/07 10:15:14;;;;;;;4.78;2.40;;;;;;;20.76;42.89;101118.88;5040024;28;20443;-70
2023/01/07 10:18:01;;;;;;;3.60;2.13;;;;;;;20.74;42.98;101116.44;5029472;28;20033;-70
2023/01/07 10:20:45;;;;;;;3.92;2.00;;;;;;;20.80;42.67;101107.75;5031495;28;20083;-71
2023/01/07 10:23:18;;;;;;;2.72;2.00;;;;;;;20.75;42.84;101096.91;5031038;28;20080;-70
2023/01/07 10:25:50;;;;;;;2.20;2.00;;;;;;;20.76;42.79;101105.66;5032951;28;20134;-70
2023/01/07 10:28:28;;;;;;;2.50;2.30;;;;;;;20.69;43.13;101097.63;5018067;28;20069;-66
2023/01/07 10:30:55;;;;;;;3.40;2.13;;;;;;;20.71;43.05;101092.97;5039292;28;20673;-67
2023/01/07 10:33:29;;;;;;;2.38;1.83;;;;;;;20.71;42.89;101090.31;5030980;28;20099;-67
2023/01/07 10:36:04;;;;;;;2.20;1.90;;;;;;;20.70;43.05;101087.84;5032542;28;20569;-66
2023/01/07 10:38:33;;;;;;;2.75;2.20;;;;;;;20.68;42.86;101077.47;5031986;28;20492;-66
2023/01/07 10:41:08;;;;;;;2.88;2.17;;;;;;;20.70;42.95;101064.88;5030643;28;20140;-66
2023/01/07 10:44:03;;;;;;;2.25;1.90;;;;;;;20.70;42.82;101070.16;5003631;28;20048;-68
2023/01/07 10:46:39;;;;;;;3.13;2.20;;;;;;;20.71;43.08;101068.34;5023295;28;20037;-67
2023/01/07 10:49:48;;;;;;;3.92;2.10;;;;;;;20.63;42.92;101041.94;5026023;28;20067;-67
2023/01/07 10:52:22;;;;;;;2.45;2.00;;;;;;;20.66;43.44;101053.00;5029596;28;20041;-66
2023/01/07 10:55:17;;;;;;;2.63;1.77;;;;;;;20.71;43.26;101042.69;5018475;28;20037;-66
2023/01/07 10:57:43;;;;;;;4.05;2.00;;;;;;;20.62;43.50;101043.75;5031558;28;20511;-67
2023/01/07 11:00:15;;;;;;;1.67;1.55;;;;;;;20.70;43.27;101033.13;5005031;28;20554;-68
2023/01/07 11:02:44;;;;;;;1.85;1.67;;;;;;;20.68;43.14;101029.00;5025634;28;20045;-68
2023/01/07 11:05:11;;;;;;;3.10;2.07;;;;;;;20.72;43.25;101035.56;5030070;28;20380;-68
2023/01/07 11:08:00;;;;;;;2.67;2.05;;;;;;;20.74;43.36;101028.28;5043802;28;20033;-69
2023/01/07 11:10:29;;;;;;;4.05;1.98;;;;;;;20.72;43.24;101020.53;5037720;28;20399;-69
2023/01/07 11:13:00;;;;;;;2.03;1.85;;;;;;;20.72;43.22;101015.22;5032573;28;20057;-68
2023/01/07 11:15:42;;;;;;;2.05;1.70;;;;;;;20.77;43.06;101019.97;5009979;28;20033;-75
2023/01/07 11:18:17;;;;;;;2.30;2.10;;;;;;;20.84;43.19;100998.91;5028399;28;20142;-75
2023/01/07 11:20:54;;;;;;;2.78;1.75;;;;;;;20.98;42.76;100995.41;5030141;28;20116;-74
2023/01/07 11:23:31;;;;;;;2.70;2.05;;;;;;;20.92;42.70;100983.75;5028161;28;20041;-75
2023/01/07 11:26:24;;;;;;;2.05;1.90;;;;;;;20.95;43.00;100986.03;5033312;28;20033;-75
2023/01/07 11:29:13;;;;;;;2.83;1.70;;;;;;;20.92;42.73;100978.44;5028399;28;20088;-74
2023/01/07 11:31:49;;;;;;;3.30;1.90;;;;;;;21.03;42.51;100979.81;5006772;28;20036;-70
2023/01/07 11:34:36;;;;;;;2.28;1.80;;;;;;;20.97;42.77;100983.19;5035055;28;20045;-70
2023/01/07 11:37:02;;;;;;;2.05;1.85;;;;;;;21.00;42.45;100975.69;5028207;28;20044;-70